createdAt,value
2019-05-05T00:00:07.477Z,1.24
2019-05-05T00:01:07.488Z,1.17
2019-05-05T00:02:07.485Z,1.26
2019-05-05T00:03:07.439Z,1.23
2019-05-05T00:04:07.432Z,1.22
2019-05-05T00:05:08.677Z,1.41
2019-05-05T00:06:07.404Z,1.40
2019-05-05T00:07:07.432Z,1.28
2019-05-05T00:08:07.404Z,1.28
2019-05-05T00:09:07.371Z,1.35
2019-05-05T00:10:07.377Z,1.40
2019-05-05T00:11:07.367Z,1.50
2019-05-05T00:12:07.387Z,1.38
2019-05-05T00:13:07.336Z,1.37
2019-05-05T00:14:07.334Z,1.37
2019-05-05T00:15:07.326Z,1.40
2019-05-05T00:16:07.293Z,1.38
2019-05-05T00:17:07.307Z,1.38
2019-05-05T00:18:07.273Z,1.34
2019-05-05T00:19:07.274Z,1.35
2019-05-05T00:20:07.300Z,1.42
2019-05-05T00:21:07.280Z,1.44
2019-05-05T00:22:07.243Z,1.42
2019-05-05T00:23:07.214Z,1.38
2019-05-05T00:24:07.205Z,1.32
2019-05-05T00:25:07.224Z,1.42
2019-05-05T00:26:07.214Z,1.44
2019-05-05T00:27:07.189Z,1.34
2019-05-05T00:28:07.159Z,1.37
2019-05-05T00:29:07.171Z,1.35
2019-05-05T00:30:07.177Z,1.42
2019-05-05T00:31:07.141Z,1.28
2019-05-05T00:32:07.148Z,1.40
2019-05-05T00:33:07.113Z,1.40
2019-05-05T00:34:07.113Z,1.44
2019-05-05T00:35:07.124Z,1.48
2019-05-05T00:36:07.801Z,1.53
2019-05-05T00:37:07.068Z,1.42
2019-05-05T00:38:07.081Z,1.48
2019-05-05T00:39:07.050Z,1.49
2019-05-05T00:40:07.031Z,1.48
2019-05-05T00:41:07.029Z,1.45
2019-05-05T00:42:07.013Z,1.40
2019-05-05T00:43:06.999Z,1.38
2019-05-05T00:44:07.014Z,1.40
2019-05-05T00:45:07.003Z,1.35
2019-05-05T00:46:06.971Z,1.40
2019-05-05T00:47:06.953Z,1.38
2019-05-05T00:48:06.959Z,1.28
2019-05-05T00:49:06.975Z,1.26
2019-05-05T00:50:06.954Z,1.23
2019-05-05T00:51:06.916Z,1.22
2019-05-05T00:52:06.966Z,1.19
2019-05-05T00:53:06.899Z,1.06
2019-05-05T00:54:06.876Z,1.08
2019-05-05T00:55:06.894Z,1.04
2019-05-05T00:56:06.889Z,1.01
2019-05-05T00:57:06.844Z,1.06
2019-05-05T00:58:06.862Z,0.99
2019-05-05T00:59:06.841Z,1.01
2019-05-05T01:00:06.835Z,0.99
2019-05-05T01:01:06.821Z,1.04
2019-05-05T01:02:06.821Z,1.01
2019-05-05T01:03:06.776Z,0.99
2019-05-05T01:04:06.793Z,1.02
2019-05-05T01:05:06.760Z,0.91
2019-05-05T01:06:06.757Z,0.81
2019-05-05T01:07:06.744Z,0.81
2019-05-05T01:08:06.777Z,0.83
2019-05-05T01:09:06.739Z,0.73
2019-05-05T01:10:06.716Z,0.70
2019-05-05T01:11:06.694Z,0.73
2019-05-05T01:12:06.711Z,0.70
2019-05-05T01:13:06.682Z,0.66
2019-05-05T01:14:06.676Z,0.78
2019-05-05T01:15:06.651Z,0.73
2019-05-05T01:16:06.640Z,0.74
2019-05-05T01:17:06.625Z,0.68
2019-05-05T01:18:06.614Z,0.74
2019-05-05T01:19:06.636Z,0.69
2019-05-05T01:20:06.912Z,0.78
2019-05-05T01:21:06.580Z,0.86
2019-05-05T01:22:06.576Z,0.80
2019-05-05T01:23:06.568Z,0.84
2019-05-05T01:24:06.552Z,0.94
2019-05-05T01:25:06.539Z,0.95
2019-05-05T01:26:06.556Z,0.99
2019-05-05T01:27:06.511Z,1.01
2019-05-05T01:28:06.504Z,1.16
2019-05-05T01:29:06.495Z,1.22
2019-05-05T01:30:06.477Z,1.35
2019-05-05T01:31:06.493Z,1.37
2019-05-05T01:32:06.486Z,1.35
2019-05-05T01:33:06.447Z,1.38
2019-05-05T01:34:06.433Z,1.40
2019-05-05T01:35:06.428Z,1.38
2019-05-05T01:36:06.433Z,1.44
2019-05-05T01:37:06.441Z,1.42
2019-05-05T01:38:06.418Z,1.37
2019-05-05T01:39:06.388Z,1.40
2019-05-05T01:40:06.395Z,1.48
2019-05-05T01:41:06.409Z,1.42
2019-05-05T01:42:06.366Z,1.40
2019-05-05T01:43:06.337Z,1.40
2019-05-05T01:44:06.346Z,1.38
2019-05-05T01:45:06.311Z,1.38
2019-05-05T01:46:06.308Z,1.42
2019-05-05T01:47:06.303Z,1.42
2019-05-05T01:48:06.280Z,1.48
2019-05-05T01:49:06.268Z,1.40
2019-05-05T01:50:17.219Z,1.41
2019-05-05T01:51:07.243Z,1.44
2019-05-05T01:52:06.248Z,1.40
2019-05-05T01:53:06.232Z,1.34
2019-05-05T01:54:06.216Z,1.37
2019-05-05T01:55:06.239Z,1.48
2019-05-05T01:56:06.219Z,1.37
2019-05-05T01:57:06.183Z,1.40
2019-05-05T01:58:06.185Z,1.35
2019-05-05T01:59:06.177Z,1.28
2019-05-05T02:00:06.187Z,1.40
2019-05-05T02:01:06.163Z,1.40
2019-05-05T02:02:06.159Z,1.37
2019-05-05T02:03:06.115Z,1.37
2019-05-05T02:04:06.127Z,1.32
2019-05-05T02:05:06.104Z,1.23
2019-05-05T02:06:06.089Z,1.23
2019-05-05T02:07:06.089Z,1.12
2019-05-05T02:08:06.087Z,1.08
2019-05-05T02:09:06.051Z,0.96
2019-05-05T02:10:06.274Z,0.98
2019-05-05T02:11:06.031Z,0.96
2019-05-05T02:12:06.014Z,0.86
2019-05-05T02:13:06.001Z,0.78
2019-05-05T02:14:06.018Z,0.70
2019-05-05T02:15:05.980Z,0.60
2019-05-05T02:16:05.970Z,0.63
2019-05-05T02:17:05.960Z,0.62
2019-05-05T02:18:05.946Z,0.58
2019-05-05T02:19:05.933Z,0.58
2019-05-05T02:20:05.944Z,0.47
2019-05-05T02:21:05.926Z,0.46
2019-05-05T02:22:05.922Z,0.39
2019-05-05T02:23:05.894Z,0.40
2019-05-05T02:24:05.915Z,0.36
2019-05-05T02:25:05.904Z,0.34
2019-05-05T02:26:05.884Z,0.34
2019-05-05T02:27:05.850Z,0.31
2019-05-05T02:28:05.836Z,0.31
2019-05-05T02:29:05.847Z,0.22
2019-05-05T02:30:06.473Z,0.22
2019-05-05T02:31:05.862Z,0.28
2019-05-05T02:32:06.555Z,0.28
2019-05-05T02:33:06.460Z,0.26
2019-05-05T02:34:05.781Z,0.23
2019-05-05T02:35:06.588Z,0.25
2019-05-05T02:36:05.888Z,0.22
2019-05-05T02:37:05.753Z,0.12
2019-05-05T02:38:06.613Z,0.15
2019-05-05T02:39:05.750Z,0.18
2019-05-05T02:40:07.632Z,0.16
2019-05-05T02:41:05.703Z,0.19
2019-05-05T02:42:05.991Z,0.21
2019-05-05T02:43:05.712Z,0.19
2019-05-05T02:44:05.681Z,0.18
2019-05-05T02:45:05.841Z,0.12
2019-05-05T02:46:05.853Z,0.16
2019-05-05T02:47:05.630Z,0.15
2019-05-05T02:48:06.166Z,0.19
2019-05-05T02:49:05.756Z,0.12
2019-05-05T02:50:05.644Z,0.07
2019-05-05T02:51:06.909Z,0.05
2019-05-05T02:52:05.576Z,0.07
2019-05-05T02:53:05.578Z,0.03
2019-05-05T02:54:05.556Z,0.05
2019-05-05T02:55:05.538Z,0.07
2019-05-05T02:56:05.575Z,0.03
2019-05-05T02:57:05.517Z,-0.02
2019-05-05T02:58:05.537Z,0.01
2019-05-05T02:59:05.502Z,0.03
2019-05-05T03:00:05.499Z,0.05
2019-05-05T03:01:05.493Z,0.01
2019-05-05T03:02:05.484Z,0.04
2019-05-05T03:03:05.477Z,0.01
2019-05-05T03:04:05.461Z,0.03
2019-05-05T03:05:05.454Z,0.21
2019-05-05T03:06:05.422Z,0.40
2019-05-05T03:07:05.424Z,0.43
2019-05-05T03:08:05.457Z,0.52
2019-05-05T03:09:05.386Z,0.46
2019-05-05T03:10:05.401Z,0.44
2019-05-05T03:11:05.409Z,0.49
2019-05-05T03:12:05.365Z,0.40
2019-05-05T03:13:05.343Z,0.44
2019-05-05T03:14:05.351Z,0.36
2019-05-05T03:15:05.325Z,0.32
2019-05-05T03:16:05.303Z,0.29
2019-05-05T03:17:05.298Z,0.28
2019-05-05T03:18:05.311Z,0.23
2019-05-05T03:19:05.288Z,0.12
2019-05-05T03:20:05.280Z,0.10
2019-05-05T03:21:07.488Z,0.05
2019-05-05T03:22:05.243Z,0.08
2019-05-05T03:23:05.230Z,0.04
2019-05-05T03:24:05.214Z,0.01
2019-05-05T03:25:05.227Z,0.05
2019-05-05T03:26:05.210Z,0.07
2019-05-05T03:27:05.192Z,0.05
2019-05-05T03:28:05.175Z,-0.02
2019-05-05T03:29:05.166Z,-0.07
2019-05-05T03:30:05.351Z,-0.11
2019-05-05T03:31:05.286Z,-0.10
2019-05-05T03:32:05.864Z,-0.10
2019-05-05T03:33:05.696Z,-0.10
2019-05-05T03:34:06.152Z,-0.13
2019-05-05T03:35:05.111Z,-0.11
2019-05-05T03:36:05.134Z,-0.15
2019-05-05T03:37:05.074Z,-0.10
2019-05-05T03:38:05.086Z,-0.14
2019-05-05T03:39:05.200Z,-0.14
2019-05-05T03:40:05.056Z,-0.11
2019-05-05T03:41:05.043Z,-0.14
2019-05-05T03:42:05.017Z,-0.08
2019-05-05T03:43:05.021Z,-0.15
2019-05-05T03:44:05.023Z,-0.11
2019-05-05T03:45:04.993Z,-0.11
2019-05-05T03:46:04.979Z,-0.15
2019-05-05T03:47:04.987Z,-0.11
2019-05-05T03:48:04.953Z,-0.15
2019-05-05T03:49:04.986Z,-0.13
2019-05-05T03:50:04.958Z,-0.15
2019-05-05T03:51:16.081Z,-0.11
2019-05-05T03:52:05.921Z,-0.14
2019-05-05T03:53:05.048Z,-0.10
2019-05-05T03:54:04.888Z,-0.13
2019-05-05T03:55:04.885Z,-0.13
2019-05-05T03:56:04.910Z,-0.10
2019-05-05T03:57:04.882Z,-0.14
2019-05-05T03:58:04.855Z,-0.11
2019-05-05T03:59:05.059Z,-0.11
2019-05-05T04:00:04.817Z,-0.14
2019-05-05T04:01:04.844Z,-0.23
2019-05-05T04:02:04.849Z,-0.10
2019-05-05T04:03:04.800Z,-0.17
2019-05-05T04:04:04.790Z,-0.11
2019-05-05T04:05:04.793Z,-0.07
2019-05-05T04:06:04.760Z,-0.10
2019-05-05T04:07:04.960Z,-0.08
2019-05-05T04:08:04.783Z,-0.06
2019-05-05T04:09:04.720Z,-0.03
2019-05-05T04:10:04.726Z,0.03
2019-05-05T04:11:04.713Z,0.05
2019-05-05T04:12:04.717Z,0.08
2019-05-05T04:13:04.820Z,0.19
2019-05-05T04:14:04.700Z,0.22
2019-05-05T04:15:04.692Z,0.25
2019-05-05T04:16:04.681Z,0.26
2019-05-05T04:17:04.647Z,0.32
2019-05-05T04:18:04.641Z,0.40
2019-05-05T04:19:04.607Z,0.36
2019-05-05T04:20:04.630Z,0.40
2019-05-05T04:21:04.596Z,0.43
2019-05-05T04:22:04.609Z,0.55
2019-05-05T04:23:04.581Z,0.58
2019-05-05T04:24:04.562Z,0.65
2019-05-05T04:25:04.724Z,0.63
2019-05-05T04:26:04.552Z,0.69
2019-05-05T04:27:04.530Z,0.74
2019-05-05T04:28:04.618Z,0.74
2019-05-05T04:29:05.283Z,0.81
2019-05-05T04:30:04.510Z,0.84
2019-05-05T04:31:04.490Z,0.83
2019-05-05T04:32:04.758Z,0.80
2019-05-05T04:33:04.463Z,0.98
2019-05-05T04:34:04.444Z,1.01
2019-05-05T04:35:04.434Z,0.94
2019-05-05T04:36:04.459Z,1.01
2019-05-05T04:37:04.428Z,1.04
2019-05-05T04:38:04.876Z,1.04
2019-05-05T04:39:04.417Z,1.16
2019-05-05T04:40:04.416Z,1.31
2019-05-05T04:41:04.371Z,1.35
2019-05-05T04:42:04.860Z,1.32
2019-05-05T04:43:04.347Z,1.42
2019-05-05T04:44:04.385Z,1.40
2019-05-05T04:45:04.344Z,1.38
2019-05-05T04:46:04.581Z,1.40
2019-05-05T04:47:04.302Z,1.42
2019-05-05T04:48:04.398Z,1.34
2019-05-05T04:49:04.283Z,1.48
2019-05-05T04:50:04.423Z,1.58
2019-05-05T04:51:04.760Z,1.50
2019-05-05T04:52:04.247Z,1.52
2019-05-05T04:53:04.578Z,1.52
2019-05-05T04:54:04.224Z,1.55
2019-05-05T04:55:04.235Z,1.66
2019-05-05T04:56:04.388Z,1.60
2019-05-05T04:57:04.593Z,1.66
2019-05-05T04:58:04.677Z,1.74
2019-05-05T04:59:04.227Z,1.84
2019-05-05T05:00:04.260Z,1.94
2019-05-05T05:01:04.736Z,1.87
2019-05-05T05:02:04.192Z,1.85
2019-05-05T05:03:04.546Z,1.94
2019-05-05T05:04:04.114Z,2.11
2019-05-05T05:05:04.211Z,2.04
2019-05-05T05:06:04.233Z,2.15
2019-05-05T05:07:04.747Z,2.10
2019-05-05T05:08:04.098Z,2.08
2019-05-05T05:09:04.148Z,2.15
2019-05-05T05:10:04.569Z,2.24
2019-05-05T05:11:04.067Z,2.29
2019-05-05T05:12:04.154Z,2.31
2019-05-05T05:13:04.630Z,2.35
2019-05-05T05:14:04.027Z,2.36
2019-05-05T05:15:04.413Z,2.51
2019-05-05T05:16:04.592Z,2.43
2019-05-05T05:17:04.023Z,2.56
2019-05-05T05:18:04.174Z,2.56
2019-05-05T05:19:04.371Z,2.57
2019-05-05T05:20:03.960Z,2.65
2019-05-05T05:21:04.117Z,2.67
2019-05-05T05:22:04.981Z,2.68
2019-05-05T05:23:03.929Z,2.61
2019-05-05T05:24:04.107Z,2.65
2019-05-05T05:25:04.535Z,2.71
2019-05-05T05:26:05.105Z,2.75
2019-05-05T05:27:05.011Z,2.72
2019-05-05T05:28:04.322Z,2.68
2019-05-05T05:29:04.551Z,2.71
2019-05-05T05:30:04.671Z,2.77
2019-05-05T05:31:04.037Z,2.77
2019-05-05T05:32:04.290Z,2.71
2019-05-05T05:33:04.438Z,2.71
2019-05-05T05:34:04.399Z,2.82
2019-05-05T05:35:03.868Z,2.79
2019-05-05T05:36:04.153Z,2.92
2019-05-05T05:37:04.330Z,2.86
2019-05-05T05:38:04.615Z,2.80
2019-05-05T05:39:03.726Z,2.79
2019-05-05T05:40:03.990Z,2.80
2019-05-05T05:41:04.265Z,2.80
2019-05-05T05:42:04.521Z,2.82
2019-05-05T05:43:04.668Z,2.80
2019-05-05T05:44:03.729Z,2.89
2019-05-05T05:45:04.152Z,2.93
2019-05-05T05:46:04.403Z,2.90
2019-05-05T05:47:03.744Z,3.03
2019-05-05T05:48:04.164Z,2.95
2019-05-05T05:49:04.509Z,2.97
2019-05-05T05:50:04.119Z,3.04
2019-05-05T05:51:04.218Z,3.01
2019-05-05T05:52:13.389Z,3.04
2019-05-05T05:53:04.846Z,3.13
2019-05-05T05:54:03.800Z,3.08
2019-05-05T05:55:04.164Z,3.16
2019-05-05T05:56:04.358Z,3.22
2019-05-05T05:57:04.339Z,3.28
2019-05-05T05:58:04.845Z,3.34
2019-05-05T05:59:03.711Z,3.41
2019-05-05T06:00:04.099Z,3.42
2019-05-05T06:01:04.282Z,3.51
2019-05-05T06:02:09.875Z,3.55
2019-05-05T06:03:04.468Z,3.65
2019-05-05T06:04:04.076Z,3.78
2019-05-05T06:05:04.366Z,3.91
2019-05-05T06:06:04.701Z,3.96
2019-05-05T06:07:04.094Z,4.04
2019-05-05T06:08:04.782Z,3.99
2019-05-05T06:09:04.264Z,3.87
2019-05-05T06:10:03.822Z,3.91
2019-05-05T06:11:04.412Z,3.78
2019-05-05T06:12:03.647Z,3.77
2019-05-05T06:13:04.131Z,3.70
2019-05-05T06:14:04.001Z,3.77
2019-05-05T06:15:03.832Z,3.76
2019-05-05T06:16:04.260Z,3.83
2019-05-05T06:17:04.263Z,3.81
2019-05-05T06:18:04.656Z,3.87
2019-05-05T06:19:03.751Z,3.92
2019-05-05T06:20:04.036Z,3.88
2019-05-05T06:21:04.493Z,3.95
2019-05-05T06:22:03.624Z,4.01
2019-05-05T06:23:04.084Z,4.02
2019-05-05T06:24:04.524Z,3.94
2019-05-05T06:25:06.528Z,4.02
2019-05-05T06:26:06.820Z,3.95
2019-05-05T06:27:03.726Z,4.05
2019-05-05T06:28:04.306Z,4.12
2019-05-05T06:29:04.370Z,4.06
2019-05-05T06:30:04.530Z,4.10
2019-05-05T06:31:04.850Z,4.08
2019-05-05T06:32:03.993Z,4.17
2019-05-05T06:33:04.899Z,4.23
2019-05-05T06:34:03.684Z,4.31
2019-05-05T06:35:03.664Z,4.38
2019-05-05T06:36:03.805Z,4.44
2019-05-05T06:37:04.252Z,4.45
2019-05-05T06:38:04.711Z,4.49
2019-05-05T06:39:04.579Z,4.52
2019-05-05T06:40:03.782Z,4.42
2019-05-05T06:41:04.211Z,4.35
2019-05-05T06:42:04.508Z,4.23
2019-05-05T06:43:04.474Z,4.10
2019-05-05T06:44:03.756Z,4.10
2019-05-05T06:45:04.163Z,4.05
2019-05-05T06:46:04.054Z,4.08
2019-05-05T06:47:04.646Z,4.22
2019-05-05T06:48:04.310Z,4.44
2019-05-05T06:49:04.335Z,4.48
2019-05-05T06:50:03.681Z,4.42
2019-05-05T06:51:03.985Z,4.55
2019-05-05T06:52:04.026Z,4.62
2019-05-05T06:53:04.287Z,4.89
2019-05-05T06:54:04.662Z,4.89
2019-05-05T06:55:03.752Z,4.97
2019-05-05T06:56:04.043Z,4.93
2019-05-05T06:57:04.523Z,4.96
2019-05-05T06:58:04.582Z,4.97
2019-05-05T06:59:04.452Z,4.90
2019-05-05T07:00:03.653Z,5.08
2019-05-05T07:01:03.607Z,4.94
2019-05-05T07:02:04.234Z,4.97
2019-05-05T07:03:05.830Z,4.90
2019-05-05T07:04:03.467Z,4.80
2019-05-05T07:05:04.041Z,4.67
2019-05-05T07:06:04.232Z,4.60
2019-05-05T07:07:04.909Z,4.62
2019-05-05T07:08:04.429Z,4.67
2019-05-05T07:09:02.730Z,4.70
2019-05-05T07:10:03.753Z,4.66
2019-05-05T07:11:04.109Z,4.66
2019-05-05T07:12:04.553Z,4.86
2019-05-05T07:13:04.830Z,4.77
2019-05-05T07:14:03.716Z,4.86
2019-05-05T07:15:04.194Z,4.99
2019-05-05T07:16:04.735Z,5.07
2019-05-05T07:17:04.913Z,5.14
2019-05-05T07:18:03.699Z,5.18
2019-05-05T07:19:04.377Z,5.26
2019-05-05T07:20:04.338Z,5.29
2019-05-05T07:21:03.626Z,5.18
2019-05-05T07:22:04.074Z,4.99
2019-05-05T07:23:05.269Z,5.00
2019-05-05T07:24:03.994Z,5.02
2019-05-05T07:25:04.617Z,4.90
2019-05-05T07:26:04.189Z,4.58
2019-05-05T07:27:04.559Z,4.55
2019-05-05T07:28:04.269Z,4.62
2019-05-05T07:29:04.478Z,4.62
2019-05-05T07:30:04.594Z,4.67
2019-05-05T07:31:04.441Z,4.66
2019-05-05T07:32:03.974Z,4.75
2019-05-05T07:33:04.462Z,4.71
2019-05-05T07:34:04.688Z,4.71
2019-05-05T07:35:04.119Z,4.66
2019-05-05T07:36:05.855Z,4.70
2019-05-05T07:37:03.833Z,4.74
2019-05-05T07:38:04.372Z,4.73
2019-05-05T07:39:03.803Z,4.86
2019-05-05T07:40:04.203Z,4.82
2019-05-05T07:41:03.651Z,4.87
2019-05-05T07:42:04.429Z,4.80
2019-05-05T07:43:04.362Z,4.74
2019-05-05T07:44:02.378Z,4.71
2019-05-05T07:45:05.443Z,4.70
2019-05-05T07:46:04.451Z,4.71
2019-05-05T07:47:03.662Z,4.75
2019-05-05T07:48:04.639Z,4.45
2019-05-05T07:49:03.864Z,4.37
2019-05-05T07:50:04.138Z,4.41
2019-05-05T07:51:05.051Z,4.34
2019-05-05T07:52:04.054Z,4.34
2019-05-05T07:53:12.275Z,4.37
2019-05-05T07:54:03.919Z,4.38
2019-05-05T07:55:03.614Z,4.20
2019-05-05T07:56:03.941Z,4.35
2019-05-05T07:57:04.158Z,4.35
2019-05-05T07:58:04.190Z,4.42
2019-05-05T07:59:03.822Z,4.45
2019-05-05T08:00:02.191Z,4.49
2019-05-05T08:01:02.184Z,4.53
2019-05-05T08:02:03.989Z,4.67
2019-05-05T08:03:03.720Z,4.70
2019-05-05T08:04:04.295Z,4.66
2019-05-05T08:05:02.141Z,4.70
2019-05-05T08:06:03.924Z,4.60
2019-05-05T08:07:04.017Z,4.67
2019-05-05T08:08:04.451Z,4.73
2019-05-05T08:09:03.945Z,4.63
2019-05-05T08:10:04.388Z,4.75
2019-05-05T08:11:02.080Z,4.71
2019-05-05T08:12:04.212Z,4.87
2019-05-05T08:13:02.053Z,4.84
2019-05-05T08:14:04.020Z,4.80
2019-05-05T08:15:04.154Z,4.80
2019-05-05T08:16:03.812Z,4.86
2019-05-05T08:17:03.607Z,4.86
2019-05-05T08:18:01.995Z,4.99
2019-05-05T08:19:03.836Z,5.04
2019-05-05T08:20:03.962Z,5.10
2019-05-05T08:21:04.081Z,5.18
2019-05-05T08:22:03.687Z,5.15
2019-05-05T08:23:04.128Z,5.23
2019-05-05T08:24:01.962Z,5.26
2019-05-05T08:25:03.884Z,5.25
2019-05-05T08:26:01.929Z,5.20
2019-05-05T08:27:04.371Z,5.23
2019-05-05T08:28:04.154Z,5.28
2019-05-05T08:29:01.895Z,5.32
2019-05-05T08:30:05.008Z,5.47
2019-05-05T08:31:03.813Z,5.61
2019-05-05T08:32:04.231Z,5.57
2019-05-05T08:33:01.841Z,5.69
2019-05-05T08:34:03.858Z,5.72
2019-05-05T08:35:04.206Z,5.59
2019-05-05T08:36:01.811Z,5.71
2019-05-05T08:37:03.764Z,5.83
2019-05-05T08:38:01.848Z,6.02
2019-05-05T08:39:03.634Z,6.24
2019-05-05T08:40:01.771Z,6.77
2019-05-05T08:41:01.751Z,7.11
2019-05-05T08:42:04.121Z,7.28
2019-05-05T08:43:01.742Z,7.43
2019-05-05T08:44:03.509Z,7.40
2019-05-05T08:45:01.707Z,7.25
2019-05-05T08:46:01.695Z,7.10
2019-05-05T08:47:01.689Z,7.23
2019-05-05T08:48:01.687Z,7.03
2019-05-05T08:49:01.677Z,6.84
2019-05-05T08:50:01.672Z,6.89
2019-05-05T08:51:01.638Z,6.89
2019-05-05T08:52:03.865Z,6.87
2019-05-05T08:53:01.629Z,6.95
2019-05-05T08:54:03.768Z,7.07
2019-05-05T08:55:01.594Z,7.13
2019-05-05T08:56:01.599Z,6.99
2019-05-05T08:57:01.577Z,7.07
2019-05-05T08:58:01.564Z,7.18
2019-05-05T08:59:03.546Z,7.31
2019-05-05T09:00:01.536Z,7.38
2019-05-05T09:01:01.534Z,7.40
2019-05-05T09:02:01.541Z,7.50
2019-05-05T09:03:03.587Z,7.42
2019-05-05T09:04:01.495Z,7.35
2019-05-05T09:05:01.484Z,7.63
2019-05-05T09:06:01.470Z,7.70
2019-05-05T09:07:01.456Z,8.20
2019-05-05T09:08:01.479Z,9.25
2019-05-05T09:09:03.690Z,9.28
2019-05-05T09:10:03.740Z,8.71
2019-05-05T09:11:01.411Z,8.37
2019-05-05T09:12:01.396Z,8.28
2019-05-05T09:13:03.673Z,8.18
2019-05-05T09:14:01.393Z,7.70
2019-05-05T09:15:01.363Z,7.67
2019-05-05T09:16:03.580Z,7.63
2019-05-05T09:17:01.343Z,7.75
2019-05-05T09:18:01.326Z,8.01
2019-05-05T09:19:01.318Z,7.82
2019-05-05T09:20:01.334Z,7.91
2019-05-05T09:21:01.303Z,8.27
2019-05-05T09:22:01.284Z,8.60
2019-05-05T09:23:01.265Z,8.66
2019-05-05T09:24:03.283Z,8.74
2019-05-05T09:25:01.247Z,8.97
2019-05-05T09:26:01.247Z,8.81
2019-05-05T09:27:03.477Z,8.76
2019-05-05T09:28:03.143Z,8.61
2019-05-05T09:29:01.195Z,8.87
2019-05-05T09:30:01.182Z,8.85
2019-05-05T09:31:01.191Z,9.39
2019-05-05T09:32:01.185Z,10.37
2019-05-05T09:33:01.157Z,11.08
2019-05-05T09:34:01.140Z,12.47
2019-05-05T09:35:01.162Z,13.28
2019-05-05T09:36:01.128Z,13.15
2019-05-05T09:37:01.111Z,11.59
2019-05-05T09:38:01.111Z,10.79
2019-05-05T09:39:01.088Z,10.42
2019-05-05T09:40:01.072Z,10.72
2019-05-05T09:41:01.070Z,10.97
2019-05-05T09:42:01.049Z,10.35
2019-05-05T09:43:01.043Z,11.26
2019-05-05T09:44:01.071Z,11.04
2019-05-05T09:45:01.015Z,10.35
2019-05-05T09:46:01.010Z,10.05
2019-05-05T09:47:01.060Z,10.71
2019-05-05T09:48:00.984Z,11.29
2019-05-05T09:49:00.973Z,10.93
2019-05-05T09:50:00.979Z,12.17
2019-05-05T09:51:00.947Z,13.04
2019-05-05T09:52:00.942Z,13.27
2019-05-05T09:53:00.935Z,12.79
2019-05-05T09:54:11.940Z,11.55
2019-05-05T09:55:03.811Z,10.87
2019-05-05T09:56:00.895Z,10.44
2019-05-05T09:57:00.946Z,10.37
2019-05-05T09:58:00.872Z,10.48
2019-05-05T09:59:00.862Z,10.38
2019-05-05T10:00:00.854Z,10.04
2019-05-05T10:01:00.867Z,9.80
2019-05-05T10:02:00.830Z,9.54
2019-05-05T10:03:00.819Z,9.10
2019-05-05T10:04:00.802Z,8.99
2019-05-05T10:05:00.793Z,8.78
2019-05-05T10:06:00.786Z,8.78
2019-05-05T10:07:00.791Z,8.70
2019-05-05T10:08:00.758Z,8.66
2019-05-05T10:09:00.748Z,8.46
2019-05-05T10:10:00.738Z,8.41
2019-05-05T10:11:00.731Z,8.26
2019-05-05T10:12:00.720Z,8.38
2019-05-05T10:13:00.729Z,8.28
2019-05-05T10:14:00.691Z,8.42
2019-05-05T10:15:00.681Z,8.42
2019-05-05T10:16:00.669Z,8.53
2019-05-05T10:17:00.659Z,8.49
2019-05-05T10:18:00.646Z,8.79
2019-05-05T10:19:00.657Z,8.76
2019-05-05T10:20:00.634Z,8.76
2019-05-05T10:21:00.612Z,8.84
2019-05-05T10:22:00.600Z,9.19
2019-05-05T10:23:00.588Z,9.43
2019-05-05T10:24:00.595Z,9.36
2019-05-05T10:25:00.587Z,9.29
2019-05-05T10:26:00.557Z,9.39
2019-05-05T10:27:00.545Z,9.04
2019-05-05T10:28:00.534Z,9.02
2019-05-05T10:29:01.255Z,8.79
2019-05-05T10:30:00.512Z,8.18
2019-05-05T10:31:00.527Z,7.98
2019-05-05T10:32:00.491Z,7.79
2019-05-05T10:33:00.479Z,7.57
2019-05-05T10:34:00.469Z,7.31
2019-05-05T10:35:00.454Z,7.17
2019-05-05T10:36:00.439Z,7.13
2019-05-05T10:37:00.455Z,7.06
2019-05-05T10:38:00.421Z,7.03
2019-05-05T10:39:00.405Z,6.97
2019-05-05T10:40:00.393Z,6.84
2019-05-05T10:41:00.379Z,6.75
2019-05-05T10:42:00.381Z,6.75
2019-05-05T10:43:00.387Z,6.79
2019-05-05T10:44:00.348Z,6.74
2019-05-05T10:45:00.332Z,6.84
2019-05-05T10:46:00.322Z,6.78
2019-05-05T10:47:00.326Z,6.81
2019-05-05T10:48:00.327Z,6.78
2019-05-05T10:49:00.303Z,6.82
2019-05-05T10:50:00.276Z,6.84
2019-05-05T10:51:00.269Z,6.70
2019-05-05T10:52:00.255Z,6.82
2019-05-05T10:53:00.243Z,6.96
2019-05-05T10:54:00.230Z,7.13
2019-05-05T10:55:00.244Z,7.17
2019-05-05T10:56:00.235Z,7.15
2019-05-05T10:57:00.196Z,7.29
2019-05-05T10:58:00.183Z,7.40
2019-05-05T10:59:00.167Z,7.57
2019-05-05T11:00:10.079Z,7.63
2019-05-05T11:01:01.163Z,7.76
2019-05-05T11:02:00.145Z,8.05
2019-05-05T11:03:00.134Z,8.01
2019-05-05T11:04:00.117Z,8.19
2019-05-05T11:05:00.095Z,8.27
2019-05-05T11:06:00.092Z,8.52
2019-05-05T11:07:00.099Z,8.73
2019-05-05T11:08:00.057Z,8.85
2019-05-05T11:09:00.053Z,9.03
2019-05-05T11:10:00.038Z,9.00
2019-05-05T11:11:00.043Z,9.22
2019-05-05T11:12:00.019Z,9.51
2019-05-05T11:13:00.060Z,9.69
2019-05-05T11:13:59.996Z,9.77
2019-05-05T11:14:59.978Z,9.77
2019-05-05T11:15:59.989Z,9.50
2019-05-05T11:16:59.961Z,9.89
2019-05-05T11:17:59.956Z,10.07
2019-05-05T11:18:59.951Z,10.34
2019-05-05T11:19:59.944Z,10.61
2019-05-05T11:20:59.957Z,10.72
2019-05-05T11:21:59.902Z,10.96
2019-05-05T11:22:59.888Z,10.99
2019-05-05T11:23:59.879Z,10.99
2019-05-05T11:25:01.183Z,10.99
2019-05-05T11:25:59.879Z,10.94
2019-05-05T11:26:59.871Z,10.72
2019-05-05T11:27:59.834Z,10.68
2019-05-05T11:28:59.834Z,10.86
2019-05-05T11:29:59.808Z,10.99
2019-05-05T11:30:59.845Z,11.15
2019-05-05T11:31:59.787Z,11.23
2019-05-05T11:32:59.779Z,11.10
2019-05-05T11:33:59.767Z,11.14
2019-05-05T11:34:59.755Z,10.99
2019-05-05T11:35:59.745Z,11.02
2019-05-05T11:36:59.759Z,10.99
2019-05-05T11:37:59.720Z,10.97
2019-05-05T11:38:59.707Z,11.12
2019-05-05T11:39:59.699Z,11.15
2019-05-05T11:40:59.692Z,11.05
2019-05-05T11:41:59.685Z,10.94
2019-05-05T11:42:59.680Z,10.78
2019-05-05T11:43:59.659Z,10.76
2019-05-05T11:44:59.643Z,10.74
2019-05-05T11:45:59.648Z,10.67
2019-05-05T11:46:59.627Z,10.75
2019-05-05T11:47:59.613Z,10.61
2019-05-05T11:48:59.630Z,10.64
2019-05-05T11:49:59.605Z,10.90
2019-05-05T11:50:59.576Z,10.94
2019-05-05T11:51:59.569Z,11.07
2019-05-05T11:52:59.553Z,10.92
2019-05-05T11:53:59.548Z,11.07
2019-05-05T11:55:09.686Z,10.94
2019-05-05T11:56:00.524Z,10.64
2019-05-05T11:56:59.509Z,10.82
2019-05-05T11:57:59.498Z,10.92
2019-05-05T11:58:59.487Z,11.00
2019-05-05T11:59:59.474Z,10.97
2019-05-05T12:00:59.481Z,10.84
2019-05-05T12:01:59.467Z,10.89
2019-05-05T12:02:59.439Z,10.78
2019-05-05T12:03:59.431Z,10.76
2019-05-05T12:04:59.427Z,10.92
2019-05-05T12:05:59.405Z,10.89
2019-05-05T12:06:59.409Z,10.97
2019-05-05T12:07:59.390Z,10.82
2019-05-05T12:08:59.383Z,10.67
2019-05-05T12:09:59.362Z,10.48
2019-05-05T12:10:59.361Z,10.44
2019-05-05T12:11:59.338Z,10.05
2019-05-05T12:12:59.344Z,9.79
2019-05-05T12:13:59.318Z,9.80
2019-05-05T12:14:59.311Z,9.61
2019-05-05T12:15:59.296Z,9.39
2019-05-05T12:16:59.281Z,9.26
2019-05-05T12:17:59.281Z,8.97
2019-05-05T12:18:59.280Z,8.69
2019-05-05T12:19:59.268Z,8.74
2019-05-05T12:20:59.234Z,8.64
2019-05-05T12:21:59.222Z,8.71
2019-05-05T12:22:59.256Z,8.56
2019-05-05T12:23:59.210Z,8.67
2019-05-05T12:24:59.205Z,8.69
2019-05-05T12:25:59.183Z,8.74
2019-05-05T12:26:59.164Z,8.97
2019-05-05T12:27:59.159Z,9.03
2019-05-05T12:28:59.143Z,9.22
2019-05-05T12:29:59.132Z,9.22
2019-05-05T12:30:59.138Z,9.28
2019-05-05T12:31:59.104Z,9.31
2019-05-05T12:32:59.096Z,9.32
2019-05-05T12:33:59.090Z,9.40
2019-05-05T12:34:59.068Z,9.11
2019-05-05T12:35:59.058Z,9.08
2019-05-05T12:36:59.067Z,9.31
2019-05-05T12:37:59.035Z,9.41
2019-05-05T12:38:59.028Z,9.40
2019-05-05T12:39:59.014Z,9.51
2019-05-05T12:40:59.003Z,9.55
2019-05-05T12:41:59.005Z,9.54
2019-05-05T12:42:59.002Z,9.55
2019-05-05T12:43:58.968Z,9.73
2019-05-05T12:44:58.956Z,9.84
2019-05-05T12:45:58.940Z,9.94
2019-05-05T12:46:58.930Z,9.97
2019-05-05T12:47:58.929Z,9.86
2019-05-05T12:48:58.928Z,9.77
2019-05-05T12:49:58.897Z,9.91
2019-05-05T12:50:58.887Z,10.07
2019-05-05T12:51:58.872Z,10.15
2019-05-05T12:52:58.862Z,9.97
2019-05-05T12:53:58.863Z,9.97
2019-05-05T12:55:01.828Z,10.17
2019-05-05T12:55:58.825Z,10.30
2019-05-05T12:56:58.817Z,10.57
2019-05-05T12:57:58.804Z,10.74
2019-05-05T12:58:58.796Z,11.00
2019-05-05T12:59:58.775Z,11.00
2019-05-05T13:00:58.815Z,11.11
2019-05-05T13:01:58.765Z,11.08
2019-05-05T13:02:58.744Z,10.82
2019-05-05T13:03:58.737Z,10.59
2019-05-05T13:04:58.722Z,10.40
2019-05-05T13:05:58.707Z,10.42
2019-05-05T13:06:58.724Z,10.38
2019-05-05T13:07:58.695Z,10.49
2019-05-05T13:08:58.675Z,10.31
2019-05-05T13:09:58.666Z,10.15
2019-05-05T13:10:58.646Z,9.92
2019-05-05T13:11:58.638Z,9.91
2019-05-05T13:12:58.647Z,9.77